• Join FlightAware (Why Join?)
  • Login
  • US Flag 
08:33AM EDT


 

Airport Tracker/Info


-or-


 

Live Flight TrackerFlight Track Log ✈ N200NK ✈ 23-Jun-2013 ✈ KHOU - MRPV / SYQ

Flight Track Log - Related Links

Times and Time Zones

All times are in EDT time to prevent confusion due to time zone crossing. See the N200NK flight status page for this flight to view local times or setup timezone preferences in your user account.

Time Position Orientation Groundspeed Altitude Reporting Facility
EDT Latitude Longitude Course Direction KTS MPH feet Rate Location/Type
11:59AM 29.6411 -95.2811 168° South 119 137 400  Level Houston Center
12:00PM 29.6217 -95.2764 168° South 120 138 1,500 1,500 Climbing Houston Center
12:01PM 29.5983 -95.2678 162° South 146 168 2,500 1,500 Climbing Houston Center
12:02PM 29.5575 -95.2519 161° South 155 178 4,200 1,500 Climbing Houston Center
12:03PM 29.5206 -95.2250 148° Southeast 165 190 5,700 1,560 Climbing Houston Center
12:04PM 29.4856 -95.1739 128° Southeast 172 198 7,500 1,500 Climbing Houston Center
12:05PM 29.4458 -95.1425 145° Southeast 176 203 8,900 1,440 Climbing Houston Center
12:06PM 29.4056 -95.1094 144° Southeast 178 205 10,500 1,560 Climbing Houston Center
12:07PM 29.3700 -95.0806 145° Southeast 163 188 12,200 1,500 Climbing Houston Center
12:08PM 29.3328 -95.0508 145° Southeast 161 185 13,700 1,500 Climbing Houston Center
12:09PM 29.2856 -95.0131 145° Southeast 169 194 15,400 1,500 Climbing Houston Center
12:10PM 29.2456 -94.9819 146° Southeast 172 198 16,800 1,140 Climbing Houston Center
12:11PM 29.2067 -94.9500 144° Southeast 173 199 17,800 1,020 Climbing Houston Center
12:12PM 29.1653 -94.9175 146° Southeast 177 204 19,000 1,020 Climbing Houston Center
12:13PM 29.1250 -94.8847 145° Southeast 177 204 20,000 1,080 Climbing Houston Center
12:14PM 29.0764 -94.8461 145° Southeast 177 204 21,300 1,080 Climbing Houston Center
12:15PM 29.0369 -94.8131 144° Southeast 176 203 22,300 900 Climbing Houston Center
12:16PM 28.9969 -94.7822 146° Southeast 174 200 23,200 780 Climbing Houston Center
12:17PM 28.9558 -94.7497 145° Southeast 177 204 24,000 720 Climbing Houston Center
12:18PM 28.9139 -94.7153 144° Southeast 183 211 24,800 720 Climbing Houston Center
12:19PM 28.8706 -94.6808 145° Southeast 187 215 25,500 720 Climbing Houston Center
12:20PM 28.8192 -94.6400 145° Southeast 188 216 26,300 660 Climbing Houston Center
12:21PM 28.7758 -94.6067 146° Southeast 188 216 26,900 300 Climbing Houston Center
12:22PM 28.7283 -94.5692 145° Southeast 200 230 27,000  Climbing Houston Center
12:23PM 28.6725 -94.5264 146° Southeast 232 267 27,000  Level Houston Center
12:25PM 28.6142 -94.4794 145° Southeast 250 288 27,000  Level Houston Center
12:26PM 28.5536 -94.4317 145° Southeast 261 300 27,000  Level Houston Center
12:27PM 28.4797 -94.3728 145° Southeast 268 308 27,000  Level Houston Center
12:28PM 28.4214 -94.3269 145° Southeast 257 296 27,000  Level Houston Center
12:29PM 28.3647 -94.2814 145° Southeast 252 290 27,000  Level Houston Center
12:30PM 28.3069 -94.2364 146° Southeast 251 289 27,000  Level Houston Center
12:31PM 28.2511 -94.1933 146° Southeast 245 282 27,000  Level Houston Center
12:32PM 28.1947 -94.1478 145° Southeast 249 287 27,000  Level Houston Center
12:33PM 28.1186 -94.1169 160° South 244 281 27,000  Level Houston Center
12:34PM 28.0514 -94.1017 169° South 244 281 27,000  Level Houston Center
12:35PM 27.9839 -94.0869 169° South 246 283 27,000  Level Houston Center
12:36PM 27.9167 -94.0719 169° South 246 283 27,000  Level Houston Center
12:37PM 27.8486 -94.0564 169° South 248 285 27,000  Level Houston Center
12:38PM 27.7672 -94.0403 170° South 248 285 27,000  Level Houston Center
12:39PM 27.7003 -94.0242 168° South 246 283 27,000  Level Houston Center
12:40PM 27.6333 -94.0094 169° South 246 283 27,000  Level Houston Center
12:41PM 27.5658 -93.9947 169° South 246 283 27,000  Level Houston Center
12:42PM 27.4989 -93.9803 169° South 247 284 27,000  Level Houston Center
12:43PM 27.4314 -93.9647 168° South 247 284 27,000  Level Houston Center
12:44PM 27.3497 -93.9472 169° South 248 285 27,000  Level Houston Center
12:45PM 27.2825 -93.9333 170° South 246 283 27,000  Level Houston Center
12:46PM 27.2153 -93.9186 169° South 247 284 27,000  Level Houston Center
12:47PM 27.1486 -93.9022 168° South 245 282 27,000  Level Houston Center
12:48PM 27.0800 -93.8869 169° South 250 288 27,000  Level Houston Center
12:49PM 27.0117 -93.8728 170° South 251 289 27,000  Level Houston Center
12:50PM 26.9300 -93.8550 169° South 249 287 27,000  Level Houston Center
12:51PM 26.8617 -93.8392 168° South 250 288 27,000  Level Houston Center
12:52PM 26.7917 -93.8256 170° South 254 292 27,000  Level Houston Center
12:53PM 26.7231 -93.8097 168° South 253 291 27,000  Level Houston Center
12:55PM 26.6547 -93.7939 168° South 252 290 27,000  Level Houston Center
12:56PM 26.5861 -93.7764 167° South 252 290 27,000  Level Houston Center
12:57PM 26.5208 -93.7486 159° South 252 290 27,000  Level Houston Center
12:59PM 26.4044 -93.6768 151° Southeast  Level FlightAware Approximate
01:06PM 25.9754 -93.4133 151° Southeast  Level FlightAware Approximate
01:07PM 25.9140 -93.3758 151° Southeast  Level FlightAware Approximate
01:08PM 25.8527 -93.3384 151° Southeast  Level FlightAware Approximate
01:09PM 25.7913 -93.3010 151° Southeast  Level FlightAware Approximate
01:10PM 25.7299 -93.2636 151° Southeast  Level FlightAware Approximate
01:11PM 25.6686 -93.2263 151° Southeast  Level FlightAware Approximate
01:12PM 25.6072 -93.1890 151° Southeast  Level FlightAware Approximate
01:13PM 25.5458 -93.1518 151° Southeast  Level FlightAware Approximate
01:14PM 25.4844 -93.1146 151° Southeast  Level FlightAware Approximate
01:15PM 25.4230 -93.0774 151° Southeast  Level FlightAware Approximate
01:16PM 25.3615 -93.0403 151° Southeast  Level FlightAware Approximate
01:17PM 25.2992 -93.0051 153° Southeast  Level FlightAware Approximate
01:18PM 25.2367 -92.9704 153° Southeast  Level FlightAware Approximate
01:19PM 25.1745 -92.9348 152° Southeast  Level FlightAware Approximate
01:20PM 25.1130 -92.8979 152° Southeast  Level FlightAware Approximate
01:21PM 25.0515 -92.8611 152° Southeast  Level FlightAware Approximate
01:22PM 24.9899 -92.8244 152° Southeast  Level FlightAware Approximate
01:23PM 24.9284 -92.7877 152° Southeast  Level FlightAware Approximate
01:24PM 24.8668 -92.7510 152° Southeast  Level FlightAware Approximate
01:25PM 24.8052 -92.7143 152° Southeast  Level FlightAware Approximate
01:26PM 24.7436 -92.6777 152° Southeast  Level FlightAware Approximate
01:27PM 24.6820 -92.6412 152° Southeast  Level FlightAware Approximate
01:28PM 24.6204 -92.6046 152° Southeast  Level FlightAware Approximate
01:29PM 24.5588 -92.5681 152° Southeast  Level FlightAware Approximate
01:30PM 24.4970 -92.5320 157° South  Level FlightAware Approximate
01:31PM 24.4324 -92.5024 157° South  Level FlightAware Approximate
01:32PM 24.3678 -92.4729 157° South  Level FlightAware Approximate
01:33PM 24.3032 -92.4435 157° South  Level FlightAware Approximate
01:34PM 24.2385 -92.4140 157° South  Level FlightAware Approximate
01:35PM 24.1739 -92.3846 157° South  Level FlightAware Approximate
01:36PM 24.1092 -92.3552 157° South  Level FlightAware Approximate
01:37PM 24.0446 -92.3258 157° South  Level FlightAware Approximate
01:38PM 23.9799 -92.2965 157° South  Level FlightAware Approximate
01:39PM 23.9153 -92.2672 158° South  Level FlightAware Approximate
01:40PM 23.8506 -92.2379 158° South  Level FlightAware Approximate
01:41PM 23.7859 -92.2087 158° South  Level FlightAware Approximate
01:42PM 23.7212 -92.1796 158° South  Level FlightAware Approximate
01:43PM 23.6565 -92.1505 158° South  Level FlightAware Approximate
01:44PM 23.5918 -92.1215 158° South  Level FlightAware Approximate
01:45PM 23.5271 -92.0925 158° South  Level FlightAware Approximate
01:46PM 23.4623 -92.0635 158° South  Level FlightAware Approximate
01:47PM 23.3976 -92.0345 158° South  Level FlightAware Approximate
01:48PM 23.3328 -92.0056 158° South  Level FlightAware Approximate
01:49PM 23.2680 -91.9767 158° South  Level FlightAware Approximate
01:50PM 23.2033 -91.9478 158° South  Level FlightAware Approximate
01:51PM 23.1385 -91.9190 158° South  Level FlightAware Approximate
01:52PM 23.0739 -91.8898 157° South  Level FlightAware Approximate
01:53PM 23.0092 -91.8607 157° South  Level FlightAware Approximate
01:54PM 22.9446 -91.8316 157° South  Level FlightAware Approximate
01:55PM 22.8799 -91.8026 157° South  Level FlightAware Approximate
01:56PM 22.8152 -91.7735 158° South  Level FlightAware Approximate
01:57PM 22.7504 -91.7449 158° South  Level FlightAware Approximate
01:58PM 22.6855 -91.7165 158° South  Level FlightAware Approximate
01:59PM 22.6206 -91.6881 158° South  Level FlightAware Approximate
02:00PM 22.5557 -91.6598 158° South  Level FlightAware Approximate
02:01PM 22.4908 -91.6314 158° South  Level FlightAware Approximate
02:02PM 22.4259 -91.6031 158° South  Level FlightAware Approximate
02:03PM 22.3610 -91.5749 158° South  Level FlightAware Approximate
02:04PM 22.2961 -91.5466 158° South  Level FlightAware Approximate
02:05PM 22.2311 -91.5184 158° South  Level FlightAware Approximate
02:06PM 22.1662 -91.4902 158° South  Level FlightAware Approximate
02:07PM 22.1013 -91.4620 158° South  Level FlightAware Approximate
02:08PM 22.0363 -91.4339 158° South  Level FlightAware Approximate
02:09PM 21.9714 -91.4057 158° South  Level FlightAware Approximate
02:10PM 21.9064 -91.3776 158° South  Level FlightAware Approximate
02:11PM 21.8415 -91.3496 158° South  Level FlightAware Approximate
02:12PM 21.7765 -91.3215 158° South  Level FlightAware Approximate
02:13PM 21.7115 -91.2935 158° South  Level FlightAware Approximate
02:14PM 21.6466 -91.2655 158° South  Level FlightAware Approximate
02:15PM 21.5816 -91.2376 158° South  Level FlightAware Approximate
02:16PM 21.5166 -91.2096 158° South  Level FlightAware Approximate
02:17PM 21.4516 -91.1817 158° South  Level FlightAware Approximate
02:18PM 21.3866 -91.1538 158° South  Level FlightAware Approximate
02:19PM 21.3216 -91.1259 158° South  Level FlightAware Approximate
02:20PM 21.2558 -91.1006 161° South  Level FlightAware Approximate
02:21PM 21.1895 -91.0765 161° South  Level FlightAware Approximate
02:22PM 21.1232 -91.0524 161° South  Level FlightAware Approximate
02:23PM 21.0581 -91.0250 158° South  Level FlightAware Approximate
02:24PM 20.9930 -90.9973 158° South  Level FlightAware Approximate
02:25PM 20.9280 -90.9696 158° South  Level FlightAware Approximate
02:26PM 20.8630 -90.9419 158° South  Level FlightAware Approximate
02:27PM 20.7980 -90.9142 158° South  Level FlightAware Approximate
02:28PM 20.7329 -90.8866 158° South  Level FlightAware Approximate
02:29PM 20.6679 -90.8590 158° South  Level FlightAware Approximate
02:30PM 20.6028 -90.8314 158° South  Level FlightAware Approximate
02:31PM 20.5378 -90.8038 158° South  Level FlightAware Approximate
02:32PM 20.4727 -90.7763 158° South  Level FlightAware Approximate
02:33PM 20.4076 -90.7488 158° South  Level FlightAware Approximate
02:34PM 20.3426 -90.7213 158° South  Level FlightAware Approximate
02:35PM 20.2775 -90.6938 158° South  Level FlightAware Approximate
02:36PM 20.2124 -90.6664 158° South  Level FlightAware Approximate
02:37PM 20.1473 -90.6390 158° South  Level FlightAware Approximate
02:38PM 20.0823 -90.6116 158° South  Level FlightAware Approximate
02:39PM 20.0172 -90.5842 158° South  Level FlightAware Approximate
02:40PM 19.9521 -90.5568 158° South  Level FlightAware Approximate
02:41PM 19.8870 -90.5295 158° South  Level FlightAware Approximate
02:42PM 19.8219 -90.5022 158° South  Level FlightAware Approximate
02:43PM 19.7609 -90.4659 150° Southeast  Level FlightAware Approximate
02:44PM 19.7002 -90.4288 150° Southeast  Level FlightAware Approximate
02:45PM 19.6395 -90.3917 150° Southeast  Level FlightAware Approximate
02:46PM 19.5788 -90.3547 150° Southeast  Level FlightAware Approximate
02:47PM 19.5182 -90.3177 150° Southeast  Level FlightAware Approximate
02:48PM 19.4575 -90.2808 150° Southeast  Level FlightAware Approximate
02:49PM 19.3968 -90.2438 150° Southeast  Level FlightAware Approximate
02:50PM 19.3361 -90.2069 150° Southeast  Level FlightAware Approximate
02:51PM 19.2753 -90.1700 150° Southeast  Level FlightAware Approximate
02:52PM 19.2146 -90.1332 150° Southeast  Level FlightAware Approximate
02:53PM 19.1539 -90.0964 150° Southeast  Level FlightAware Approximate
02:54PM 19.0931 -90.0596 150° Southeast  Level FlightAware Approximate
02:55PM 19.0324 -90.0228 150° Southeast  Level FlightAware Approximate
02:56PM 18.9716 -89.9861 150° Southeast  Level FlightAware Approximate
02:57PM 18.9109 -89.9493 150° Southeast  Level FlightAware Approximate
02:58PM 18.8501 -89.9126 150° Southeast  Level FlightAware Approximate
02:59PM 18.7894 -89.8760 150° Southeast  Level FlightAware Approximate
03:00PM 18.7286 -89.8393 150° Southeast  Level FlightAware Approximate
03:01PM 18.6678 -89.8027 150° Southeast  Level FlightAware Approximate
03:02PM 18.6070 -89.7661 150° Southeast  Level FlightAware Approximate
03:03PM 18.5462 -89.7296 150° Southeast  Level FlightAware Approximate
03:04PM 18.4854 -89.6930 150° Southeast  Level FlightAware Approximate
03:05PM 18.4245 -89.6565 150° Southeast  Level FlightAware Approximate
03:06PM 18.3637 -89.6200 150° Southeast  Level FlightAware Approximate
03:07PM 18.3029 -89.5836 150° Southeast  Level FlightAware Approximate
03:08PM 18.2421 -89.5472 150° Southeast  Level FlightAware Approximate
03:09PM 18.1812 -89.5108 150° Southeast  Level FlightAware Approximate
03:10PM 18.1204 -89.4744 150° Southeast  Level FlightAware Approximate
03:11PM 18.0595 -89.4380 150° Southeast  Level FlightAware Approximate
03:12PM 17.9986 -89.4017 150° Southeast  Level FlightAware Approximate
03:13PM 17.9378 -89.3654 150° Southeast  Level FlightAware Approximate
03:14PM 17.8769 -89.3291 150° Southeast  Level FlightAware Approximate
03:15PM 17.8160 -89.2929 150° Southeast  Level FlightAware Approximate
03:16PM 17.7554 -89.2561 150° Southeast  Level FlightAware Approximate
03:17PM 17.6949 -89.2191 150° Southeast  Level FlightAware Approximate
03:18PM 17.6344 -89.1822 150° Southeast  Level FlightAware Approximate
03:19PM 17.5739 -89.1453 150° Southeast  Level FlightAware Approximate
03:20PM 17.5134 -89.1084 150° Southeast  Level FlightAware Approximate
03:21PM 17.4529 -89.0715 150° Southeast  Level FlightAware Approximate
03:22PM 17.3924 -89.0347 150° Southeast  Level FlightAware Approximate
03:23PM 17.3319 -88.9978 150° Southeast  Level FlightAware Approximate
03:24PM 17.2714 -88.9611 150° Southeast  Level FlightAware Approximate
03:25PM 17.2108 -88.9243 150° Southeast  Level FlightAware Approximate
03:26PM 17.1503 -88.8876 150° Southeast  Level FlightAware Approximate
03:27PM 17.0897 -88.8508 150° Southeast  Level FlightAware Approximate
03:28PM 17.0291 -88.8142 151° Southeast  Level FlightAware Approximate
03:29PM 16.9682 -88.7782 151° Southeast  Level FlightAware Approximate
03:30PM 16.9072 -88.7422 151° Southeast  Level FlightAware Approximate
03:31PM 16.8463 -88.7063 151° Southeast  Level FlightAware Approximate
03:32PM 16.7853 -88.6704 151° Southeast  Level FlightAware Approximate
03:33PM 16.7243 -88.6345 151° Southeast  Level FlightAware Approximate
03:34PM 16.6634 -88.5986 151° Southeast  Level FlightAware Approximate
03:35PM 16.6024 -88.5628 151° Southeast  Level FlightAware Approximate
03:36PM 16.5414 -88.5270 151° Southeast  Level FlightAware Approximate
03:37PM 16.4804 -88.4912 151° Southeast  Level FlightAware Approximate
03:38PM 16.4194 -88.4554 151° Southeast  Level FlightAware Approximate
03:39PM 16.3584 -88.4197 151° Southeast  Level FlightAware Approximate
03:40PM 16.2974 -88.3839 151° Southeast  Level FlightAware Approximate
03:41PM 16.2364 -88.3482 151° Southeast  Level FlightAware Approximate
03:42PM 16.1754 -88.3126 151° Southeast  Level FlightAware Approximate
03:43PM 16.1143 -88.2769 151° Southeast  Level FlightAware Approximate
03:44PM 16.0533 -88.2413 151° Southeast  Level FlightAware Approximate
03:45PM 15.9922 -88.2056 151° Southeast  Level FlightAware Approximate
03:46PM 15.9312 -88.1700 151° Southeast  Level FlightAware Approximate
03:47PM 15.8701 -88.1345 151° Southeast  Level FlightAware Approximate
03:48PM 15.8091 -88.0989 151° Southeast  Level FlightAware Approximate
03:49PM 15.7480 -88.0634 151° Southeast  Level FlightAware Approximate
03:50PM 15.6869 -88.0279 151° Southeast  Level FlightAware Approximate
03:51PM 15.6259 -87.9924 151° Southeast  Level FlightAware Approximate
03:52PM 15.5648 -87.9569 151° Southeast  Level FlightAware Approximate
03:53PM 15.5037 -87.9215 151° Southeast  Level FlightAware Approximate
03:54PM 15.4418 -87.8876 154° Southeast  Level FlightAware Approximate
03:55PM 15.3788 -87.8560 154° Southeast  Level FlightAware Approximate
03:56PM 15.3158 -87.8245 154° Southeast  Level FlightAware Approximate
03:57PM 15.2521 -87.7944 156° South  Level FlightAware Approximate
03:58PM 15.1883 -87.7647 156° South  Level FlightAware Approximate
03:59PM 15.1244 -87.7351 156° South  Level FlightAware Approximate
04:00PM 15.0605 -87.7054 156° South  Level FlightAware Approximate
04:01PM 14.9967 -87.6758 156° South  Level FlightAware Approximate
04:02PM 14.9328 -87.6462 156° South  Level FlightAware Approximate
04:03PM 14.8689 -87.6166 156° South  Level FlightAware Approximate
04:04PM 14.8050 -87.5870 156° South  Level FlightAware Approximate
04:05PM 14.7411 -87.5575 156° South  Level FlightAware Approximate
04:06PM 14.6772 -87.5279 156° South  Level FlightAware Approximate
04:07PM 14.6134 -87.4984 156° South  Level FlightAware Approximate
04:08PM 14.5495 -87.4689 156° South  Level FlightAware Approximate
04:09PM 14.4856 -87.4395 156° South  Level FlightAware Approximate
04:10PM 14.4217 -87.4100 156° South  Level FlightAware Approximate
04:11PM 14.3580 -87.3799 155° Southeast  Level FlightAware Approximate
04:12PM 14.2945 -87.3495 155° Southeast  Level FlightAware Approximate
04:13PM 14.2310 -87.3191 155° Southeast  Level FlightAware Approximate
04:14PM 14.1676 -87.2887 155° Southeast  Level FlightAware Approximate
04:15PM 14.1041 -87.2584 155° Southeast  Level FlightAware Approximate
04:16PM 14.0406 -87.2281 155° Southeast  Level FlightAware Approximate
04:17PM 13.9783 -87.1951 151° Southeast  Level FlightAware Approximate
04:18PM 13.9169 -87.1606 151° Southeast  Level FlightAware Approximate
04:19PM 13.8555 -87.1261 151° Southeast  Level FlightAware Approximate
04:20PM 13.7940 -87.0916 151° Southeast  Level FlightAware Approximate
04:21PM 13.7326 -87.0571 151° Southeast  Level FlightAware Approximate
04:22PM 13.6711 -87.0226 151° Southeast  Level FlightAware Approximate
04:23PM 13.6096 -86.9882 151° Southeast  Level FlightAware Approximate
04:24PM 13.5482 -86.9537 151° Southeast  Level FlightAware Approximate
04:25PM 13.4867 -86.9193 151° Southeast  Level FlightAware Approximate
04:26PM 13.4252 -86.8849 151° Southeast  Level FlightAware Approximate
04:27PM 13.3638 -86.8505 151° Southeast  Level FlightAware Approximate
04:28PM 13.3023 -86.8162 151° Southeast  Level FlightAware Approximate
04:29PM 13.2408 -86.7819 151° Southeast  Level FlightAware Approximate
04:30PM 13.1793 -86.7475 151° Southeast  Level FlightAware Approximate
04:31PM 13.1178 -86.7132 151° Southeast  Level FlightAware Approximate
04:32PM 13.0563 -86.6789 151° Southeast  Level FlightAware Approximate
04:33PM 12.9948 -86.6447 152° Southeast  Level FlightAware Approximate
04:34PM 12.9333 -86.6104 152° Southeast  Level FlightAware Approximate
04:35PM 12.8717 -86.5762 152° Southeast  Level FlightAware Approximate
04:36PM 12.8102 -86.5419 152° Southeast  Level FlightAware Approximate
04:37PM 12.7487 -86.5078 152° Southeast  Level FlightAware Approximate
04:38PM 12.6872 -86.4736 152° Southeast  Level FlightAware Approximate
04:39PM 12.6257 -86.4394 152° Southeast  Level FlightAware Approximate
04:40PM 12.5641 -86.4052 152° Southeast  Level FlightAware Approximate
04:41PM 12.5026 -86.3711 152° Southeast  Level FlightAware Approximate
04:42PM 12.4410 -86.3370 152° Southeast  Level FlightAware Approximate
04:43PM 12.3795 -86.3029 152° Southeast  Level FlightAware Approximate
04:44PM 12.3179 -86.2688 152° Southeast  Level FlightAware Approximate
04:45PM 12.2564 -86.2347 152° Southeast  Level FlightAware Approximate
04:46PM 12.1948 -86.2007 152° Southeast  Level FlightAware Approximate
04:47PM 12.1333 -86.1666 138° Southeast  Level FlightAware Approximate
04:48PM 12.0811 -86.1189 138° Southeast  Level FlightAware Approximate
04:49PM 12.0289 -86.0712 138° Southeast  Level FlightAware Approximate
04:50PM 11.9767 -86.0235 138° Southeast  Level FlightAware Approximate
04:51PM 11.9245 -85.9759 138° Southeast  Level FlightAware Approximate
04:52PM 11.8723 -85.9282 138° Southeast  Level FlightAware Approximate
04:53PM 11.8201 -85.8806 138° Southeast  Level FlightAware Approximate
04:54PM 11.7679 -85.8330 138° Southeast  Level FlightAware Approximate
04:55PM 11.7156 -85.7855 138° Southeast  Level FlightAware Approximate
04:56PM 11.6634 -85.7379 138° Southeast  Level FlightAware Approximate
04:57PM 11.6111 -85.6904 138° Southeast  Level FlightAware Approximate
04:58PM 11.5589 -85.6428 138° Southeast  Level FlightAware Approximate
04:59PM 11.5066 -85.5953 138° Southeast  Level FlightAware Approximate
05:00PM 11.4544 -85.5478 138° Southeast  Level FlightAware Approximate
05:01PM 11.4021 -85.5004 138° Southeast  Level FlightAware Approximate
05:02PM 11.3493 -85.4535 139° Southeast  Level FlightAware Approximate
05:03PM 11.2962 -85.4070 139° Southeast  Level FlightAware Approximate
05:04PM 11.2435 -85.3601 136° Southeast  Level FlightAware Approximate
05:05PM 11.1935 -85.3102 136° Southeast  Level FlightAware Approximate
05:06PM 11.1427 -85.2612 144° Southeast  Level FlightAware Approximate
05:07PM 11.0863 -85.2189 144° Southeast  Level FlightAware Approximate
05:08PM 11.0300 -85.1766 144° Southeast  Level FlightAware Approximate
05:09PM 10.9785 -85.1285 136° Southeast  Level FlightAware Approximate
05:10PM 10.9286 -85.0786 136° Southeast  Level FlightAware Approximate
05:11PM 10.8783 -85.0290 139° Southeast  Level FlightAware Approximate
05:12PM 10.8251 -84.9827 139° Southeast  Level FlightAware Approximate
05:13PM 10.7719 -84.9364 139° Southeast  Level FlightAware Approximate
05:14PM 10.7188 -84.8901 139° Southeast  Level FlightAware Approximate
05:15PM 10.6655 -84.8438 139° Southeast  Level FlightAware Approximate
05:16PM 10.6123 -84.7976 139° Southeast  Level FlightAware Approximate
05:17PM 10.5591 -84.7513 139° Southeast  Level FlightAware Approximate
05:18PM 10.5059 -84.7051 140° Southeast  Level FlightAware Approximate
05:19PM 10.4556 -84.6556 135° Southeast  Level FlightAware Approximate
05:20PM 10.4057 -84.6057 135° Southeast  Level FlightAware Approximate
05:21PM 10.3523 -84.5600 144° Southeast  Level FlightAware Approximate
05:22PM 10.2983 -84.5150 135° Southeast  Level FlightAware Approximate
05:23PM 10.2485 -84.4651 135° Southeast  Level FlightAware Approximate
05:24PM 10.1962 -84.4180 144° Southeast  Level FlightAware Approximate
05:25PM 10.1399 -84.3758 144° Southeast  Level FlightAware Approximate
05:26PM 10.0836 -84.3335 144° Southeast  Level FlightAware Approximate
05:27PM 10.0454 -84.2787 135° Southeast  Level FlightAware Approximate
05:28PM 9.9890 -84.2371 147° Southeast  Level FlightAware Approximate
05:29PM 9.9587 -84.1770 101° East  Level FlightAware Approximate
05:30PM 9.9500 -84.1333 101° East  Level FlightAware Approximate
05:31PM 9.9571 -84.1398 101° East  Level Estimated
05:32PM 9.9571 -84.1398 101° East  Level Estimated
05:33PM 9.9571 -84.1398 101° East  Level Estimated
05:34PM 9.9571 -84.1398 101° East  Level Estimated
05:35PM 9.9571 -84.1398 101° East  Level Estimated
05:36PM 9.9571 -84.1398 101° East  Level Estimated
05:37PM 9.9571 -84.1398 101° East  Level Estimated